sensor_id;sensor_type;location;lat;lon;timestamp;P1;durP1;ratioP1;P2;durP2;ratioP2
67514;SDS011;60646;55.802;37.032;2023-01-16T00:00:53;8.57;;;4.10;;
67514;SDS011;60646;55.802;37.032;2023-01-16T00:03:20;10.38;;;4.40;;
67514;SDS011;60646;55.802;37.032;2023-01-16T00:05:46;10.45;;;4.18;;
67514;SDS011;60646;55.802;37.032;2023-01-16T00:08:12;11.18;;;4.88;;
67514;SDS011;60646;55.802;37.032;2023-01-16T00:10:38;10.95;;;4.35;;
67514;SDS011;60646;55.802;37.032;2023-01-16T00:13:04;12.18;;;4.15;;
67514;SDS011;60646;55.802;37.032;2023-01-16T00:15:30;9.60;;;4.30;;
67514;SDS011;60646;55.802;37.032;2023-01-16T00:17:56;10.88;;;4.43;;
67514;SDS011;60646;55.802;37.032;2023-01-16T00:20:22;12.70;;;4.82;;
67514;SDS011;60646;55.802;37.032;2023-01-16T00:22:47;9.75;;;3.97;;
67514;SDS011;60646;55.802;37.032;2023-01-16T00:25:14;11.85;;;4.70;;
67514;SDS011;60646;55.802;37.032;2023-01-16T00:27:39;10.98;;;4.18;;
67514;SDS011;60646;55.802;37.032;2023-01-16T00:30:06;12.73;;;4.85;;
67514;SDS011;60646;55.802;37.032;2023-01-16T00:32:32;11.85;;;4.40;;
67514;SDS011;60646;55.802;37.032;2023-01-16T00:34:58;10.50;;;3.92;;
67514;SDS011;60646;55.802;37.032;2023-01-16T00:37:23;10.57;;;4.50;;
67514;SDS011;60646;55.802;37.032;2023-01-16T00:39:49;10.80;;;4.05;;
67514;SDS011;60646;55.802;37.032;2023-01-16T00:42:17;12.35;;;4.50;;
67514;SDS011;60646;55.802;37.032;2023-01-16T00:44:43;13.55;;;4.43;;
67514;SDS011;60646;55.802;37.032;2023-01-16T00:47:09;10.82;;;5.03;;
67514;SDS011;60646;55.802;37.032;2023-01-16T00:49:35;9.90;;;4.05;;
67514;SDS011;60646;55.802;37.032;2023-01-16T00:52:01;10.48;;;4.40;;
67514;SDS011;60646;55.802;37.032;2023-01-16T00:54:27;12.52;;;4.53;;
67514;SDS011;60646;55.802;37.032;2023-01-16T00:56:53;11.43;;;4.32;;
67514;SDS011;60646;55.802;37.032;2023-01-16T00:59:18;14.50;;;4.18;;
67514;SDS011;60646;55.802;37.032;2023-01-16T01:01:44;13.05;;;4.55;;
67514;SDS011;60646;55.802;37.032;2023-01-16T01:04:10;13.18;;;4.63;;
67514;SDS011;60646;55.802;37.032;2023-01-16T01:06:37;16.10;;;4.75;;
67514;SDS011;60646;55.802;37.032;2023-01-16T01:09:03;13.18;;;5.05;;
67514;SDS011;60646;55.802;37.032;2023-01-16T01:11:29;13.20;;;5.15;;
67514;SDS011;60646;55.802;37.032;2023-01-16T01:13:55;13.75;;;4.25;;
67514;SDS011;60646;55.802;37.032;2023-01-16T01:16:22;12.13;;;4.65;;
67514;SDS011;60646;55.802;37.032;2023-01-16T01:18:47;14.13;;;4.80;;
67514;SDS011;60646;55.802;37.032;2023-01-16T01:21:14;9.10;;;4.32;;
67514;SDS011;60646;55.802;37.032;2023-01-16T01:23:39;20.15;;;4.40;;
67514;SDS011;60646;55.802;37.032;2023-01-16T01:26:06;14.88;;;4.28;;
67514;SDS011;60646;55.802;37.032;2023-01-16T01:28:36;10.80;;;4.22;;
67514;SDS011;60646;55.802;37.032;2023-01-16T01:31:06;14.38;;;4.95;;
67514;SDS011;60646;55.802;37.032;2023-01-16T01:33:33;12.40;;;4.85;;
67514;SDS011;60646;55.802;37.032;2023-01-16T01:35:59;17.52;;;4.95;;
67514;SDS011;60646;55.802;37.032;2023-01-16T01:38:25;10.38;;;3.75;;
67514;SDS011;60646;55.802;37.032;2023-01-16T01:40:51;14.35;;;4.13;;
67514;SDS011;60646;55.802;37.032;2023-01-16T01:43:17;9.35;;;3.80;;
67514;SDS011;60646;55.802;37.032;2023-01-16T01:45:48;11.13;;;4.38;;
67514;SDS011;60646;55.802;37.032;2023-01-16T01:51:04;16.73;;;4.18;;
67514;SDS011;60646;55.802;37.032;2023-01-16T01:53:41;12.05;;;3.97;;
67514;SDS011;60646;55.802;37.032;2023-01-16T01:56:15;11.50;;;4.13;;
67514;SDS011;60646;55.802;37.032;2023-01-16T01:58:49;14.55;;;4.57;;
67514;SDS011;60646;55.802;37.032;2023-01-16T02:01:20;7.53;;;3.17;;
67514;SDS011;60646;55.802;37.032;2023-01-16T02:03:47;12.13;;;4.50;;
67514;SDS011;60646;55.802;37.032;2023-01-16T02:06:18;10.52;;;3.63;;
67514;SDS011;60646;55.802;37.032;2023-01-16T02:08:47;9.93;;;3.97;;
67514;SDS011;60646;55.802;37.032;2023-01-16T02:11:17;10.25;;;4.60;;
67514;SDS011;60646;55.802;37.032;2023-01-16T02:13:57;12.40;;;4.35;;
67514;SDS011;60646;55.802;37.032;2023-01-16T02:16:34;13.05;;;4.70;;
67514;SDS011;60646;55.802;37.032;2023-01-16T02:36:26;10.55;;;4.05;;
67514;SDS011;60646;55.802;37.032;2023-01-16T02:44:40;11.52;;;4.00;;
67514;SDS011;60646;55.802;37.032;2023-01-16T02:50:06;11.20;;;4.95;;
67514;SDS011;60646;55.802;37.032;2023-01-16T02:52:45;12.35;;;3.60;;
67514;SDS011;60646;55.802;37.032;2023-01-16T02:55:20;8.77;;;4.18;;
67514;SDS011;60646;55.802;37.032;2023-01-16T02:57:54;13.43;;;4.15;;
67514;SDS011;60646;55.802;37.032;2023-01-16T03:00:25;12.40;;;4.10;;
67514;SDS011;60646;55.802;37.032;2023-01-16T03:02:52;12.73;;;4.28;;
67514;SDS011;60646;55.802;37.032;2023-01-16T03:05:18;10.75;;;4.05;;
67514;SDS011;60646;55.802;37.032;2023-01-16T03:07:49;14.98;;;4.05;;
67514;SDS011;60646;55.802;37.032;2023-01-16T03:10:42;10.60;;;4.13;;
67514;SDS011;60646;55.802;37.032;2023-01-16T03:16:00;11.80;;;4.30;;
67514;SDS011;60646;55.802;37.032;2023-01-16T03:29:39;8.15;;;3.10;;
67514;SDS011;60646;55.802;37.032;2023-01-16T03:34:52;11.18;;;3.85;;
67514;SDS011;60646;55.802;37.032;2023-01-16T03:37:36;10.23;;;3.58;;
67514;SDS011;60646;55.802;37.032;2023-01-16T03:40:07;11.15;;;3.80;;
67514;SDS011;60646;55.802;37.032;2023-01-16T03:42:40;14.98;;;4.18;;
67514;SDS011;60646;55.802;37.032;2023-01-16T03:45:13;8.40;;;2.88;;
67514;SDS011;60646;55.802;37.032;2023-01-16T03:47:52;14.13;;;3.85;;
67514;SDS011;60646;55.802;37.032;2023-01-16T03:50:25;13.48;;;3.88;;
67514;SDS011;60646;55.802;37.032;2023-01-16T03:52:54;8.80;;;3.17;;
67514;SDS011;60646;55.802;37.032;2023-01-16T03:55:27;10.20;;;3.83;;
67514;SDS011;60646;55.802;37.032;2023-01-16T03:57:59;7.85;;;3.38;;
67514;SDS011;60646;55.802;37.032;2023-01-16T04:00:29;14.32;;;4.05;;
67514;SDS011;60646;55.802;37.032;2023-01-16T04:03:08;14.93;;;4.22;;
67514;SDS011;60646;55.802;37.032;2023-01-16T04:05:49;9.07;;;3.55;;
67514;SDS011;60646;55.802;37.032;2023-01-16T04:08:23;9.23;;;3.10;;
67514;SDS011;60646;55.802;37.032;2023-01-16T04:10:56;12.18;;;4.05;;
67514;SDS011;60646;55.802;37.032;2023-01-16T04:13:27;11.30;;;3.95;;
67514;SDS011;60646;55.802;37.032;2023-01-16T04:15:56;11.82;;;3.58;;
67514;SDS011;60646;55.802;37.032;2023-01-16T04:18:27;12.00;;;3.70;;
67514;SDS011;60646;55.802;37.032;2023-01-16T04:20:56;12.35;;;3.75;;
67514;SDS011;60646;55.802;37.032;2023-01-16T04:23:21;11.75;;;3.65;;
67514;SDS011;60646;55.802;37.032;2023-01-16T04:25:47;10.48;;;3.75;;
67514;SDS011;60646;55.802;37.032;2023-01-16T04:28:13;11.85;;;3.67;;
67514;SDS011;60646;55.802;37.032;2023-01-16T04:30:39;8.77;;;3.22;;
67514;SDS011;60646;55.802;37.032;2023-01-16T04:33:05;9.15;;;3.53;;
67514;SDS011;60646;55.802;37.032;2023-01-16T04:35:31;9.68;;;4.03;;
67514;SDS011;60646;55.802;37.032;2023-01-16T04:37:57;6.82;;;3.33;;
67514;SDS011;60646;55.802;37.032;2023-01-16T04:40:23;11.75;;;3.13;;
67514;SDS011;60646;55.802;37.032;2023-01-16T04:42:49;10.63;;;3.22;;
67514;SDS011;60646;55.802;37.032;2023-01-16T04:45:15;10.70;;;3.45;;
67514;SDS011;60646;55.802;37.032;2023-01-16T04:47:44;10.10;;;3.45;;
67514;SDS011;60646;55.802;37.032;2023-01-16T04:50:14;8.40;;;3.25;;
67514;SDS011;60646;55.802;37.032;2023-01-16T04:52:40;13.95;;;3.92;;
67514;SDS011;60646;55.802;37.032;2023-01-16T04:55:06;10.25;;;3.53;;
67514;SDS011;60646;55.802;37.032;2023-01-16T04:57:33;10.07;;;3.17;;
67514;SDS011;60646;55.802;37.032;2023-01-16T04:59:59;9.68;;;3.60;;
67514;SDS011;60646;55.802;37.032;2023-01-16T05:02:24;15.23;;;3.65;;
67514;SDS011;60646;55.802;37.032;2023-01-16T05:04:50;9.73;;;3.03;;
67514;SDS011;60646;55.802;37.032;2023-01-16T05:07:16;13.40;;;3.28;;
67514;SDS011;60646;55.802;37.032;2023-01-16T05:10:00;10.80;;;3.00;;
67514;SDS011;60646;55.802;37.032;2023-01-16T05:12:26;10.52;;;3.28;;
67514;SDS011;60646;55.802;37.032;2023-01-16T05:14:51;11.57;;;3.55;;
67514;SDS011;60646;55.802;37.032;2023-01-16T05:17:17;7.78;;;2.80;;
67514;SDS011;60646;55.802;37.032;2023-01-16T05:19:43;8.60;;;2.85;;
67514;SDS011;60646;55.802;37.032;2023-01-16T05:22:09;12.25;;;3.15;;
67514;SDS011;60646;55.802;37.032;2023-01-16T05:24:35;8.32;;;3.22;;
67514;SDS011;60646;55.802;37.032;2023-01-16T05:27:00;11.77;;;3.15;;
67514;SDS011;60646;55.802;37.032;2023-01-16T05:29:27;8.23;;;2.88;;
67514;SDS011;60646;55.802;37.032;2023-01-16T05:31:53;16.80;;;3.47;;
67514;SDS011;60646;55.802;37.032;2023-01-16T05:34:18;11.23;;;2.65;;
67514;SDS011;60646;55.802;37.032;2023-01-16T05:36:44;7.70;;;3.10;;
67514;SDS011;60646;55.802;37.032;2023-01-16T05:39:09;11.40;;;3.13;;
67514;SDS011;60646;55.802;37.032;2023-01-16T05:41:35;9.43;;;3.15;;
67514;SDS011;60646;55.802;37.032;2023-01-16T05:44:01;8.02;;;3.38;;
67514;SDS011;60646;55.802;37.032;2023-01-16T05:46:26;13.85;;;3.40;;
67514;SDS011;60646;55.802;37.032;2023-01-16T05:48:52;8.38;;;3.25;;
67514;SDS011;60646;55.802;37.032;2023-01-16T05:51:18;9.18;;;2.95;;
67514;SDS011;60646;55.802;37.032;2023-01-16T05:53:45;9.98;;;2.60;;
67514;SDS011;60646;55.802;37.032;2023-01-16T05:56:14;11.80;;;3.58;;
67514;SDS011;60646;55.802;37.032;2023-01-16T05:58:40;10.07;;;3.42;;
67514;SDS011;60646;55.802;37.032;2023-01-16T06:01:06;8.35;;;3.38;;
67514;SDS011;60646;55.802;37.032;2023-01-16T06:03:31;8.85;;;3.08;;
67514;SDS011;60646;55.802;37.032;2023-01-16T06:05:57;10.32;;;3.35;;
67514;SDS011;60646;55.802;37.032;2023-01-16T06:08:24;9.25;;;3.58;;
67514;SDS011;60646;55.802;37.032;2023-01-16T06:10:50;13.32;;;3.88;;
67514;SDS011;60646;55.802;37.032;2023-01-16T06:13:16;9.80;;;3.30;;
67514;SDS011;60646;55.802;37.032;2023-01-16T06:15:42;11.63;;;3.15;;
67514;SDS011;60646;55.802;37.032;2023-01-16T06:18:08;11.38;;;2.85;;
67514;SDS011;60646;55.802;37.032;2023-01-16T06:20:33;9.43;;;3.40;;
67514;SDS011;60646;55.802;37.032;2023-01-16T06:22:59;10.55;;;2.72;;
67514;SDS011;60646;55.802;37.032;2023-01-16T06:25:25;13.05;;;2.95;;
67514;SDS011;60646;55.802;37.032;2023-01-16T06:27:51;11.27;;;2.70;;
67514;SDS011;60646;55.802;37.032;2023-01-16T06:30:35;7.47;;;2.70;;
67514;SDS011;60646;55.802;37.032;2023-01-16T06:33:01;11.60;;;2.80;;
67514;SDS011;60646;55.802;37.032;2023-01-16T06:35:27;6.07;;;2.97;;
67514;SDS011;60646;55.802;37.032;2023-01-16T06:37:52;13.88;;;2.65;;
67514;SDS011;60646;55.802;37.032;2023-01-16T06:40:18;6.18;;;2.65;;
67514;SDS011;60646;55.802;37.032;2023-01-16T06:42:44;8.50;;;2.92;;
67514;SDS011;60646;55.802;37.032;2023-01-16T06:45:09;11.35;;;3.30;;
67514;SDS011;60646;55.802;37.032;2023-01-16T06:47:35;11.70;;;2.90;;
67514;SDS011;60646;55.802;37.032;2023-01-16T06:50:01;9.75;;;2.95;;
67514;SDS011;60646;55.802;37.032;2023-01-16T06:52:27;11.63;;;3.03;;
67514;SDS011;60646;55.802;37.032;2023-01-16T06:54:53;19.98;;;3.40;;
67514;SDS011;60646;55.802;37.032;2023-01-16T06:57:18;13.15;;;3.65;;
67514;SDS011;60646;55.802;37.032;2023-01-16T06:59:44;9.05;;;2.95;;
67514;SDS011;60646;55.802;37.032;2023-01-16T07:02:10;13.23;;;3.47;;
67514;SDS011;60646;55.802;37.032;2023-01-16T07:04:35;8.57;;;3.40;;
67514;SDS011;60646;55.802;37.032;2023-01-16T07:07:02;14.35;;;2.63;;
67514;SDS011;60646;55.802;37.032;2023-01-16T07:09:28;11.80;;;3.17;;
67514;SDS011;60646;55.802;37.032;2023-01-16T07:11:54;16.15;;;3.65;;
67514;SDS011;60646;55.802;37.032;2023-01-16T07:14:19;10.50;;;2.78;;
67514;SDS011;60646;55.802;37.032;2023-01-16T07:17:03;11.52;;;3.40;;
67514;SDS011;60646;55.802;37.032;2023-01-16T07:19:48;11.90;;;2.83;;
67514;SDS011;60646;55.802;37.032;2023-01-16T07:22:32;7.80;;;2.63;;
67514;SDS011;60646;55.802;37.032;2023-01-16T07:25:27;13.17;;;3.40;;
67514;SDS011;60646;55.802;37.032;2023-01-16T07:28:00;8.73;;;2.88;;
67514;SDS011;60646;55.802;37.032;2023-01-16T07:30:27;8.45;;;3.03;;
67514;SDS011;60646;55.802;37.032;2023-01-16T07:32:53;9.00;;;2.45;;
67514;SDS011;60646;55.802;37.032;2023-01-16T07:35:19;11.70;;;3.53;;
67514;SDS011;60646;55.802;37.032;2023-01-16T07:37:44;8.82;;;2.95;;
67514;SDS011;60646;55.802;37.032;2023-01-16T07:40:11;10.07;;;2.92;;
67514;SDS011;60646;55.802;37.032;2023-01-16T07:42:38;6.35;;;2.35;;
67514;SDS011;60646;55.802;37.032;2023-01-16T07:45:04;13.38;;;3.17;;
67514;SDS011;60646;55.802;37.032;2023-01-16T07:47:32;13.63;;;3.15;;
67514;SDS011;60646;55.802;37.032;2023-01-16T07:49:59;9.23;;;3.40;;
67514;SDS011;60646;55.802;37.032;2023-01-16T07:52:26;9.18;;;2.92;;
67514;SDS011;60646;55.802;37.032;2023-01-16T07:54:51;9.32;;;2.67;;
67514;SDS011;60646;55.802;37.032;2023-01-16T07:57:17;11.00;;;3.00;;
67514;SDS011;60646;55.802;37.032;2023-01-16T07:59:43;9.23;;;3.05;;
67514;SDS011;60646;55.802;37.032;2023-01-16T08:02:09;9.35;;;2.97;;
67514;SDS011;60646;55.802;37.032;2023-01-16T08:04:35;12.57;;;3.22;;
67514;SDS011;60646;55.802;37.032;2023-01-16T08:07:01;8.05;;;2.63;;
67514;SDS011;60646;55.802;37.032;2023-01-16T08:09:27;10.13;;;2.83;;
67514;SDS011;60646;55.802;37.032;2023-01-16T08:11:52;7.22;;;2.58;;
67514;SDS011;60646;55.802;37.032;2023-01-16T08:14:18;14.55;;;2.95;;
67514;SDS011;60646;55.802;37.032;2023-01-16T08:16:44;7.70;;;2.60;;
67514;SDS011;60646;55.802;37.032;2023-01-16T08:19:09;6.72;;;2.58;;
67514;SDS011;60646;55.802;37.032;2023-01-16T08:21:35;9.77;;;2.67;;
67514;SDS011;60646;55.802;37.032;2023-01-16T08:24:01;5.32;;;2.42;;
67514;SDS011;60646;55.802;37.032;2023-01-16T08:26:28;6.70;;;2.78;;
67514;SDS011;60646;55.802;37.032;2023-01-16T08:28:54;7.15;;;2.95;;
67514;SDS011;60646;55.802;37.032;2023-01-16T08:31:20;12.27;;;2.63;;
67514;SDS011;60646;55.802;37.032;2023-01-16T08:33:48;6.60;;;2.40;;
67514;SDS011;60646;55.802;37.032;2023-01-16T08:36:15;4.35;;;2.35;;
67514;SDS011;60646;55.802;37.032;2023-01-16T08:38:42;7.55;;;2.70;;
67514;SDS011;60646;55.802;37.032;2023-01-16T08:41:08;6.82;;;2.75;;
67514;SDS011;60646;55.802;37.032;2023-01-16T08:43:52;11.27;;;3.33;;
67514;SDS011;60646;55.802;37.032;2023-01-16T08:46:37;10.65;;;2.78;;
67514;SDS011;60646;55.802;37.032;2023-01-16T08:49:41;6.38;;;2.55;;
67514;SDS011;60646;55.802;37.032;2023-01-16T08:52:26;4.78;;;2.38;;
67514;SDS011;60646;55.802;37.032;2023-01-16T08:54:56;8.93;;;2.72;;
67514;SDS011;60646;55.802;37.032;2023-01-16T08:57:23;5.55;;;2.15;;
67514;SDS011;60646;55.802;37.032;2023-01-16T08:59:48;5.82;;;2.17;;
67514;SDS011;60646;55.802;37.032;2023-01-16T09:02:14;8.38;;;2.65;;
67514;SDS011;60646;55.802;37.032;2023-01-16T09:04:40;6.72;;;1.98;;
67514;SDS011;60646;55.802;37.032;2023-01-16T09:07:07;9.80;;;2.13;;
67514;SDS011;60646;55.802;37.032;2023-01-16T09:09:33;8.30;;;2.92;;
67514;SDS011;60646;55.802;37.032;2023-01-16T09:11:59;7.25;;;2.38;;
67514;SDS011;60646;55.802;37.032;2023-01-16T09:14:43;7.22;;;2.63;;
67514;SDS011;60646;55.802;37.032;2023-01-16T09:17:09;6.90;;;2.00;;
67514;SDS011;60646;55.802;37.032;2023-01-16T09:19:35;5.97;;;2.00;;
67514;SDS011;60646;55.802;37.032;2023-01-16T09:22:01;6.30;;;2.20;;
67514;SDS011;60646;55.802;37.032;2023-01-16T09:24:31;9.55;;;2.78;;
67514;SDS011;60646;55.802;37.032;2023-01-16T09:26:58;7.05;;;2.03;;
67514;SDS011;60646;55.802;37.032;2023-01-16T09:29:24;6.10;;;2.20;;
67514;SDS011;60646;55.802;37.032;2023-01-16T09:31:52;10.23;;;2.17;;
67514;SDS011;60646;55.802;37.032;2023-01-16T09:34:18;8.30;;;2.25;;
67514;SDS011;60646;55.802;37.032;2023-01-16T09:36:43;4.40;;;1.73;;
67514;SDS011;60646;55.802;37.032;2023-01-16T09:39:27;7.13;;;2.53;;
67514;SDS011;60646;55.802;37.032;2023-01-16T09:44:58;10.23;;;2.20;;
67514;SDS011;60646;55.802;37.032;2023-01-16T09:47:29;6.10;;;1.95;;
67514;SDS011;60646;55.802;37.032;2023-01-16T09:49:58;5.32;;;2.05;;
67514;SDS011;60646;55.802;37.032;2023-01-16T09:52:47;7.43;;;2.20;;
67514;SDS011;60646;55.802;37.032;2023-01-16T09:55:42;5.63;;;2.10;;
67514;SDS011;60646;55.802;37.032;2023-01-16T09:58:31;8.35;;;2.13;;
67514;SDS011;60646;55.802;37.032;2023-01-16T10:01:01;9.18;;;2.00;;
67514;SDS011;60646;55.802;37.032;2023-01-16T10:03:47;8.00;;;2.30;;
67514;SDS011;60646;55.802;37.032;2023-01-16T10:11:43;7.45;;;2.08;;
67514;SDS011;60646;55.802;37.032;2023-01-16T10:14:22;5.30;;;1.73;;
67514;SDS011;60646;55.802;37.032;2023-01-16T10:30:36;7.15;;;2.30;;
67514;SDS011;60646;55.802;37.032;2023-01-16T10:35:57;4.55;;;1.90;;
67514;SDS011;60646;55.802;37.032;2023-01-16T10:38:36;6.55;;;2.15;;
67514;SDS011;60646;55.802;37.032;2023-01-16T10:41:13;8.05;;;2.30;;
67514;SDS011;60646;55.802;37.032;2023-01-16T10:44:26;8.70;;;2.30;;
67514;SDS011;60646;55.802;37.032;2023-01-16T10:47:10;8.90;;;2.90;;
67514;SDS011;60646;55.802;37.032;2023-01-16T10:49:55;5.35;;;2.08;;
67514;SDS011;60646;55.802;37.032;2023-01-16T10:52:22;4.82;;;2.25;;
67514;SDS011;60646;55.802;37.032;2023-01-16T10:54:51;12.57;;;2.33;;
67514;SDS011;60646;55.802;37.032;2023-01-16T10:57:20;4.88;;;2.20;;
67514;SDS011;60646;55.802;37.032;2023-01-16T10:59:46;8.27;;;2.10;;
67514;SDS011;60646;55.802;37.032;2023-01-16T11:02:20;5.32;;;2.17;;
67514;SDS011;60646;55.802;37.032;2023-01-16T11:04:55;6.18;;;2.20;;
67514;SDS011;60646;55.802;37.032;2023-01-16T11:07:27;6.32;;;2.20;;
67514;SDS011;60646;55.802;37.032;2023-01-16T11:09:55;6.32;;;2.17;;
67514;SDS011;60646;55.802;37.032;2023-01-16T11:12:23;5.20;;;2.30;;
67514;SDS011;60646;55.802;37.032;2023-01-16T11:15:21;6.70;;;2.50;;
67514;SDS011;60646;55.802;37.032;2023-01-16T11:23:58;6.25;;;2.05;;
67514;SDS011;60646;55.802;37.032;2023-01-16T11:26:53;5.32;;;2.08;;
67514;SDS011;60646;55.802;37.032;2023-01-16T11:29:21;9.00;;;2.47;;
67514;SDS011;60646;55.802;37.032;2023-01-16T11:31:59;5.75;;;2.25;;
67514;SDS011;60646;55.802;37.032;2023-01-16T11:34:29;7.10;;;2.20;;
67514;SDS011;60646;55.802;37.032;2023-01-16T11:37:02;9.82;;;2.50;;
67514;SDS011;60646;55.802;37.032;2023-01-16T11:39:31;4.53;;;2.38;;
67514;SDS011;60646;55.802;37.032;2023-01-16T11:42:02;8.57;;;2.60;;
67514;SDS011;60646;55.802;37.032;2023-01-16T11:44:50;5.32;;;2.80;;
67514;SDS011;60646;55.802;37.032;2023-01-16T11:47:41;4.95;;;2.20;;
67514;SDS011;60646;55.802;37.032;2023-01-16T11:52:52;5.93;;;2.25;;
67514;SDS011;60646;55.802;37.032;2023-01-16T11:55:17;4.63;;;2.28;;
67514;SDS011;60646;55.802;37.032;2023-01-16T12:01:00;7.47;;;2.53;;
67514;SDS011;60646;55.802;37.032;2023-01-16T12:11:55;6.32;;;1.98;;
67514;SDS011;60646;55.802;37.032;2023-01-16T12:14:40;5.45;;;2.20;;
67514;SDS011;60646;55.802;37.032;2023-01-16T12:28:31;5.20;;;2.40;;
67514;SDS011;60646;55.802;37.032;2023-01-16T12:56:26;7.15;;;2.38;;
67514;SDS011;60646;55.802;37.032;2023-01-16T12:58:58;4.40;;;1.98;;
67514;SDS011;60646;55.802;37.032;2023-01-16T13:01:30;6.32;;;2.50;;
67514;SDS011;60646;55.802;37.032;2023-01-16T13:06:47;5.68;;;2.60;;
67514;SDS011;60646;55.802;37.032;2023-01-16T13:09:26;5.55;;;2.30;;
67514;SDS011;60646;55.802;37.032;2023-01-16T13:11:59;4.63;;;2.17;;
67514;SDS011;60646;55.802;37.032;2023-01-16T13:14:50;5.80;;;2.47;;
67514;SDS011;60646;55.802;37.032;2023-01-16T13:17:22;4.28;;;2.42;;
67514;SDS011;60646;55.802;37.032;2023-01-16T13:19:52;6.82;;;2.25;;
67514;SDS011;60646;55.802;37.032;2023-01-16T13:25:09;6.97;;;2.35;;
67514;SDS011;60646;55.802;37.032;2023-01-16T13:27:44;5.38;;;2.05;;
67514;SDS011;60646;55.802;37.032;2023-01-16T13:30:16;5.32;;;2.08;;
67514;SDS011;60646;55.802;37.032;2023-01-16T13:32:50;4.15;;;2.30;;
67514;SDS011;60646;55.802;37.032;2023-01-16T13:35:18;5.45;;;2.25;;
67514;SDS011;60646;55.802;37.032;2023-01-16T13:43:21;4.18;;;2.45;;
67514;SDS011;60646;55.802;37.032;2023-01-16T13:46:10;7.03;;;2.53;;
67514;SDS011;60646;55.802;37.032;2023-01-16T13:48:37;8.57;;;2.55;;
67514;SDS011;60646;55.802;37.032;2023-01-16T13:51:12;4.93;;;2.35;;
67514;SDS011;60646;55.802;37.032;2023-01-16T13:53:39;5.97;;;2.45;;
67514;SDS011;60646;55.802;37.032;2023-01-16T13:56:13;6.50;;;2.58;;
67514;SDS011;60646;55.802;37.032;2023-01-16T13:58:45;5.90;;;2.65;;
67514;SDS011;60646;55.802;37.032;2023-01-16T14:04:24;9.95;;;2.92;;
67514;SDS011;60646;55.802;37.032;2023-01-16T14:06:53;7.03;;;2.78;;
67514;SDS011;60646;55.802;37.032;2023-01-16T14:13:20;7.20;;;2.97;;
67514;SDS011;60646;55.802;37.032;2023-01-16T14:21:19;4.28;;;2.35;;
67514;SDS011;60646;55.802;37.032;2023-01-16T14:23:47;10.23;;;3.40;;
67514;SDS011;60646;55.802;37.032;2023-01-16T14:26:49;6.97;;;3.03;;
67514;SDS011;60646;55.802;37.032;2023-01-16T14:29:20;7.80;;;2.85;;
67514;SDS011;60646;55.802;37.032;2023-01-16T14:34:44;6.78;;;2.78;;
67514;SDS011;60646;55.802;37.032;2023-01-16T14:37:27;6.95;;;3.20;;
67514;SDS011;60646;55.802;37.032;2023-01-16T14:39:58;8.30;;;3.22;;
67514;SDS011;60646;55.802;37.032;2023-01-16T14:42:36;7.60;;;2.80;;
67514;SDS011;60646;55.802;37.032;2023-01-16T14:48:58;7.30;;;2.70;;
67514;SDS011;60646;55.802;37.032;2023-01-16T14:51:54;8.48;;;3.45;;
67514;SDS011;60646;55.802;37.032;2023-01-16T14:54:42;7.82;;;2.95;;
67514;SDS011;60646;55.802;37.032;2023-01-16T14:57:28;7.85;;;3.05;;
67514;SDS011;60646;55.802;37.032;2023-01-16T14:59:59;7.57;;;3.20;;
67514;SDS011;60646;55.802;37.032;2023-01-16T15:02:44;6.22;;;2.90;;
67514;SDS011;60646;55.802;37.032;2023-01-16T15:05:20;6.47;;;3.38;;
67514;SDS011;60646;55.802;37.032;2023-01-16T15:08:08;7.90;;;2.97;;
67514;SDS011;60646;55.802;37.032;2023-01-16T15:10:38;8.63;;;3.05;;
67514;SDS011;60646;55.802;37.032;2023-01-16T15:15:41;8.93;;;3.60;;
67514;SDS011;60646;55.802;37.032;2023-01-16T15:18:12;7.43;;;2.97;;
67514;SDS011;60646;55.802;37.032;2023-01-16T15:20:58;9.25;;;4.00;;
67514;SDS011;60646;55.802;37.032;2023-01-16T15:23:42;8.35;;;3.13;;
67514;SDS011;60646;55.802;37.032;2023-01-16T15:26:25;6.65;;;3.00;;
67514;SDS011;60646;55.802;37.032;2023-01-16T15:33:59;8.20;;;3.55;;
67514;SDS011;60646;55.802;37.032;2023-01-16T15:36:32;6.35;;;3.03;;
67514;SDS011;60646;55.802;37.032;2023-01-16T15:38:59;7.75;;;3.08;;
67514;SDS011;60646;55.802;37.032;2023-01-16T15:41:30;9.80;;;2.83;;
67514;SDS011;60646;55.802;37.032;2023-01-16T15:44:17;8.38;;;2.95;;
67514;SDS011;60646;55.802;37.032;2023-01-16T15:53:07;8.43;;;3.55;;
67514;SDS011;60646;55.802;37.032;2023-01-16T15:55:54;6.45;;;3.20;;
67514;SDS011;60646;55.802;37.032;2023-01-16T15:58:26;7.63;;;3.30;;
67514;SDS011;60646;55.802;37.032;2023-01-16T16:00:55;7.20;;;3.33;;
67514;SDS011;60646;55.802;37.032;2023-01-16T16:03:30;8.85;;;3.58;;
67514;SDS011;60646;55.802;37.032;2023-01-16T16:06:03;10.02;;;3.42;;
67514;SDS011;60646;55.802;37.032;2023-01-16T16:08:31;11.98;;;4.05;;
67514;SDS011;60646;55.802;37.032;2023-01-16T16:11:00;9.77;;;3.50;;
67514;SDS011;60646;55.802;37.032;2023-01-16T16:13:48;5.63;;;2.97;;
67514;SDS011;60646;55.802;37.032;2023-01-16T16:16:24;11.93;;;3.85;;
67514;SDS011;60646;55.802;37.032;2023-01-16T16:19:11;7.43;;;3.15;;
67514;SDS011;60646;55.802;37.032;2023-01-16T16:21:55;7.75;;;3.33;;
67514;SDS011;60646;55.802;37.032;2023-01-16T16:24:41;8.75;;;3.60;;
67514;SDS011;60646;55.802;37.032;2023-01-16T16:27:07;8.85;;;3.30;;
67514;SDS011;60646;55.802;37.032;2023-01-16T16:29:38;8.57;;;3.55;;
67514;SDS011;60646;55.802;37.032;2023-01-16T16:32:05;9.00;;;3.30;;
67514;SDS011;60646;55.802;37.032;2023-01-16T16:34:36;7.55;;;4.03;;
67514;SDS011;60646;55.802;37.032;2023-01-16T16:37:02;7.65;;;3.05;;
67514;SDS011;60646;55.802;37.032;2023-01-16T16:47:39;10.45;;;3.75;;
67514;SDS011;60646;55.802;37.032;2023-01-16T16:50:32;7.13;;;3.33;;
67514;SDS011;60646;55.802;37.032;2023-01-16T16:53:25;11.25;;;3.53;;
67514;SDS011;60646;55.802;37.032;2023-01-16T16:55:52;7.88;;;3.38;;
67514;SDS011;60646;55.802;37.032;2023-01-16T16:58:40;9.70;;;3.22;;
67514;SDS011;60646;55.802;37.032;2023-01-16T17:01:12;11.27;;;4.53;;
67514;SDS011;60646;55.802;37.032;2023-01-16T17:03:39;6.73;;;3.53;;
67514;SDS011;60646;55.802;37.032;2023-01-16T17:06:12;12.98;;;3.75;;
67514;SDS011;60646;55.802;37.032;2023-01-16T17:08:40;8.88;;;4.07;;
67514;SDS011;60646;55.802;37.032;2023-01-16T17:11:08;11.18;;;3.70;;
67514;SDS011;60646;55.802;37.032;2023-01-16T17:13:36;9.88;;;3.15;;
67514;SDS011;60646;55.802;37.032;2023-01-16T17:16:01;8.57;;;3.88;;
67514;SDS011;60646;55.802;37.032;2023-01-16T17:18:28;8.00;;;3.38;;
67514;SDS011;60646;55.802;37.032;2023-01-16T17:20:53;11.93;;;4.85;;
67514;SDS011;60646;55.802;37.032;2023-01-16T17:23:20;8.75;;;3.28;;
67514;SDS011;60646;55.802;37.032;2023-01-16T17:25:47;7.88;;;3.05;;
67514;SDS011;60646;55.802;37.032;2023-01-16T17:28:13;11.45;;;4.30;;
67514;SDS011;60646;55.802;37.032;2023-01-16T17:30:40;10.20;;;4.07;;
67514;SDS011;60646;55.802;37.032;2023-01-16T17:33:13;9.32;;;3.70;;
67514;SDS011;60646;55.802;37.032;2023-01-16T17:35:42;11.15;;;3.88;;
67514;SDS011;60646;55.802;37.032;2023-01-16T17:38:18;7.60;;;3.30;;
67514;SDS011;60646;55.802;37.032;2023-01-16T17:40:45;13.05;;;4.35;;
67514;SDS011;60646;55.802;37.032;2023-01-16T17:43:14;7.38;;;3.35;;
67514;SDS011;60646;55.802;37.032;2023-01-16T17:45:59;9.63;;;3.53;;
67514;SDS011;60646;55.802;37.032;2023-01-16T17:48:30;8.18;;;3.45;;
67514;SDS011;60646;55.802;37.032;2023-01-16T17:50:56;10.50;;;4.22;;